ROMMA est une association bénévole à but non lucratif. Votre soutien est indispensable : ADHERER à ROMMA ou FAIRE un DON

Val-d'Arly - (73, Savoie)

Beaufortain (2050 m)   Longitude: 06° 35' 21" E   Latitude: 45° 46' 53" N Station romma n°118
 

Détail journalier du     <<     >>

Température Humidité Vent Dir Rafale Dir. rafale Ensol.
Heure (°C) (%) (km/h) (km/h) (min)
01:00 6.2366E16SO0
02:00 6.7335NO13O0
03:00 6.7327SO16SSO0
04:00 6.2326SSO13SSO0
05:00 5.8334O13O0
06:00 5.2367ONO16OSO0
07:00 5.8326OSO11O0
08:00 6.1362N10O60
09:00 5.4375O11O60
10:00 5.64012SO16SO60
11:00 6.3429SO15OSO60
12:00 6.24712SO19SO60
13:00 6.84412SO19OSO60
14:00 7.33915OSO21OSO60
15:00 7.33410ONO23NO60
16:00 7.3429ONO23ONO60
17:00 8.2472NE6ONO60
18:00 5.6586NNE19NNE60
19:00 4.3629N16N0
20:00 3.9647NNE15N0
21:00 3.3674E10E0
22:00 3.1692E8E0
23:00 2.5754NNO8NNO0
minuit 1.8783NE8N0

Graphique du 24-03-2019

 

Serveur OMMA